createdAt,value
2019-05-12T00:00:07.922Z,9.69
2019-05-12T00:02:35.286Z,9.71
2019-05-12T00:05:02.439Z,9.70
2019-05-12T00:07:29.635Z,9.70
2019-05-12T00:09:58.189Z,9.71
2019-05-12T00:12:27.720Z,9.76
2019-05-12T00:14:54.882Z,9.72
2019-05-12T00:17:21.938Z,9.80
2019-05-12T00:19:49.466Z,9.81
2019-05-12T00:22:18.442Z,9.88
2019-05-12T00:24:47.750Z,9.85
2019-05-12T00:27:17.985Z,9.82
2019-05-12T00:29:45.079Z,9.88
2019-05-12T00:32:12.209Z,9.86
2019-05-12T00:34:39.240Z,9.90
2019-05-12T00:37:08.280Z,9.96
2019-05-12T00:39:35.342Z,9.92
2019-05-12T00:42:02.812Z,9.99
2019-05-12T00:44:30.371Z,10.01
2019-05-12T00:46:57.763Z,9.94
2019-05-12T00:49:24.917Z,9.96
2019-05-12T00:51:52.448Z,10.03
2019-05-12T00:54:19.581Z,9.90
2019-05-12T00:56:48.253Z,9.97
2019-05-12T00:59:16.930Z,9.98
2019-05-12T01:01:44.966Z,10.01
2019-05-12T01:04:12.115Z,10.03
2019-05-12T01:06:39.902Z,10.03
2019-05-12T01:09:08.841Z,10.08
2019-05-12T01:11:37.886Z,10.14
2019-05-12T01:14:05.216Z,9.99
2019-05-12T01:16:32.936Z,10.05
2019-05-12T01:19:00.418Z,10.03
2019-05-12T01:21:28.734Z,10.06
2019-05-12T01:24:00.532Z,10.07
2019-05-12T01:26:28.329Z,10.04
2019-05-12T01:28:55.005Z,10.07
2019-05-12T01:31:24.177Z,10.02
2019-05-12T01:33:51.524Z,10.02
2019-05-12T01:36:18.957Z,10.01
2019-05-12T01:38:48.289Z,9.87
2019-05-12T01:41:17.506Z,9.91
2019-05-12T01:43:44.525Z,9.90
2019-05-12T01:46:11.629Z,9.90
2019-05-12T01:48:38.963Z,9.83
2019-05-12T01:51:08.240Z,9.88
2019-05-12T01:53:37.634Z,9.86
2019-05-12T01:56:04.692Z,9.88
2019-05-12T01:58:31.856Z,9.86
2019-05-12T02:00:59.043Z,9.95
2019-05-12T02:03:28.226Z,9.88
2019-05-12T02:05:58.003Z,9.88
2019-05-12T02:08:31.092Z,9.98
2019-05-12T02:11:18.333Z,9.89
2019-05-12T02:13:45.633Z,9.87
2019-05-12T02:16:13.183Z,9.98
2019-05-12T02:18:40.388Z,10.05
2019-05-12T02:21:08.416Z,10.04
2019-05-12T02:23:35.542Z,9.91
2019-05-12T02:26:02.995Z,9.93
2019-05-12T02:28:30.110Z,9.90
2019-05-12T02:30:58.960Z,9.97
2019-05-12T02:33:26.251Z,9.91
2019-05-12T02:35:54.842Z,9.91
2019-05-12T02:38:24.976Z,9.92
2019-05-12T02:40:51.660Z,9.99
2019-05-12T02:43:18.761Z,9.94
2019-05-12T02:45:45.920Z,9.93
2019-05-12T02:48:14.470Z,9.88
2019-05-12T02:50:44.985Z,9.96
2019-05-12T02:53:14.217Z,9.95
2019-05-12T02:55:40.879Z,9.91
2019-05-12T02:58:09.814Z,9.89
2019-05-12T03:00:37.185Z,9.84
2019-05-12T03:03:07.311Z,9.77
2019-05-12T03:05:35.197Z,9.89
2019-05-12T03:08:04.866Z,9.92
2019-05-12T03:10:35.559Z,9.89
2019-05-12T03:13:04.375Z,9.83
2019-05-12T03:15:35.832Z,9.92
2019-05-12T03:18:00.830Z,9.91
2019-05-12T03:20:28.150Z,9.93
2019-05-12T03:22:55.553Z,9.91
2019-05-12T03:25:26.107Z,9.90
2019-05-12T03:27:54.560Z,9.84
2019-05-12T03:30:20.874Z,9.76
2019-05-12T03:32:48.228Z,9.92
2019-05-12T03:35:17.729Z,9.84
2019-05-12T03:37:45.376Z,9.83
2019-05-12T03:40:14.455Z,9.81
2019-05-12T03:42:44.457Z,9.82
2019-05-12T03:45:10.727Z,9.87
2019-05-12T03:47:37.810Z,9.88
2019-05-12T03:50:05.061Z,9.85
2019-05-12T03:52:34.988Z,9.91
2019-05-12T03:55:01.192Z,9.93
2019-05-12T03:57:28.263Z,9.91
2019-05-12T03:59:55.416Z,9.93
2019-05-12T04:02:25.073Z,9.87
2019-05-12T04:05:15.624Z,9.86
2019-05-12T04:07:44.808Z,9.90
2019-05-12T04:10:10.866Z,9.88
2019-05-12T04:12:37.958Z,9.82
2019-05-12T04:15:05.488Z,9.92
2019-05-12T04:17:34.937Z,9.94
2019-05-12T04:20:04.808Z,9.98
2019-05-12T04:22:31.159Z,9.92
2019-05-12T04:24:58.687Z,9.85
2019-05-12T04:27:25.760Z,9.79
2019-05-12T04:29:54.729Z,9.83
2019-05-12T04:32:24.934Z,9.92
2019-05-12T04:34:54.830Z,9.87
2019-05-12T04:37:20.955Z,9.92
2019-05-12T04:39:48.103Z,9.85
2019-05-12T04:42:15.269Z,9.90
2019-05-12T04:44:44.860Z,9.86
2019-05-12T04:47:14.321Z,9.88
2019-05-12T04:49:41.271Z,9.79
2019-05-12T04:52:08.348Z,9.90
2019-05-12T04:54:35.734Z,9.85
2019-05-12T04:57:04.200Z,9.97
2019-05-12T04:59:34.333Z,9.91
2019-05-12T05:02:00.607Z,9.98
2019-05-12T05:04:28.177Z,9.92
2019-05-12T05:06:55.254Z,9.96
2019-05-12T05:09:24.540Z,10.10
2019-05-12T05:11:54.151Z,10.25
2019-05-12T05:14:20.593Z,10.07
2019-05-12T05:16:47.693Z,10.21
2019-05-12T05:19:14.810Z,10.22
2019-05-12T05:21:43.762Z,10.26
2019-05-12T05:24:14.045Z,10.33
2019-05-12T05:26:40.770Z,10.30
2019-05-12T05:29:07.888Z,10.28
2019-05-12T05:31:35.836Z,10.40
2019-05-12T05:34:04.890Z,10.47
2019-05-12T05:36:34.447Z,10.41
2019-05-12T05:39:03.852Z,10.29
2019-05-12T05:41:30.272Z,10.36
2019-05-12T05:43:58.495Z,10.34
2019-05-12T05:46:26.052Z,10.31
2019-05-12T05:48:54.235Z,10.44
2019-05-12T05:51:23.730Z,10.45
2019-05-12T05:53:51.947Z,10.63
2019-05-12T05:56:19.450Z,10.47
2019-05-12T05:58:51.685Z,10.69
2019-05-12T06:01:19.296Z,10.67
2019-05-12T06:03:46.397Z,10.59
2019-05-12T06:06:23.656Z,10.65
2019-05-12T06:08:57.732Z,10.72
2019-05-12T06:11:31.184Z,10.73
2019-05-12T06:14:05.468Z,10.87
2019-05-12T06:16:30.797Z,11.00
2019-05-12T06:18:58.250Z,10.88
2019-05-12T06:21:29.047Z,10.99
2019-05-12T06:23:59.042Z,11.14
2019-05-12T06:26:34.873Z,10.95
2019-05-12T06:28:58.214Z,11.03
2019-05-12T06:31:29.877Z,11.12
2019-05-12T06:33:55.211Z,11.01
2019-05-12T06:36:27.146Z,11.00
2019-05-12T06:38:54.112Z,11.00
2019-05-12T06:41:25.204Z,10.92
2019-05-12T06:43:50.204Z,11.03
2019-05-12T06:46:21.032Z,11.12
2019-05-12T06:48:46.484Z,11.03
2019-05-12T06:51:19.383Z,11.02
2019-05-12T06:53:44.339Z,10.89
2019-05-12T06:56:15.431Z,11.08
2019-05-12T06:58:40.677Z,11.34
2019-05-12T07:01:11.084Z,11.53
2019-05-12T07:03:37.542Z,11.38
2019-05-12T07:06:09.335Z,11.55
2019-05-12T07:08:38.223Z,11.87
2019-05-12T07:11:05.891Z,11.93
2019-05-12T07:13:34.101Z,12.01
2019-05-12T07:16:16.713Z,12.18
2019-05-12T07:18:43.863Z,12.20
2019-05-12T07:21:17.820Z,11.97
2019-05-12T07:23:41.264Z,11.78
2019-05-12T07:26:13.980Z,11.78
2019-05-12T07:28:40.520Z,11.87
2019-05-12T07:31:07.467Z,12.23
2019-05-12T07:33:41.449Z,12.14
2019-05-12T07:36:06.269Z,12.00
2019-05-12T07:38:34.502Z,12.05
2019-05-12T07:41:08.899Z,12.31
2019-05-12T07:43:33.779Z,12.28
2019-05-12T07:46:06.548Z,12.28
2019-05-12T07:48:33.466Z,12.31
2019-05-12T07:51:00.934Z,12.21
2019-05-12T07:53:28.097Z,12.49
2019-05-12T07:55:55.255Z,12.86
2019-05-12T07:58:23.947Z,12.99
2019-05-12T08:00:53.870Z,12.96
2019-05-12T08:03:21.351Z,13.08
2019-05-12T08:05:51.331Z,13.19
2019-05-12T08:08:18.337Z,13.23
2019-05-12T08:10:45.442Z,13.36
2019-05-12T08:13:14.621Z,13.54
2019-05-12T08:15:45.811Z,13.78
2019-05-12T08:18:10.969Z,13.69
2019-05-12T08:20:38.122Z,13.82
2019-05-12T08:23:10.160Z,13.48
2019-05-12T08:25:34.392Z,13.69
2019-05-12T08:28:12.290Z,13.93
2019-05-12T08:30:33.641Z,14.17
2019-05-12T08:33:03.664Z,14.08
2019-05-12T08:35:34.743Z,14.36
2019-05-12T08:37:58.949Z,14.34
2019-05-12T08:40:26.187Z,14.48
2019-05-12T08:42:53.991Z,14.42
2019-05-12T08:45:25.090Z,14.74
2019-05-12T08:47:50.709Z,14.85
2019-05-12T08:50:23.194Z,15.08
2019-05-12T08:52:47.057Z,15.43
2019-05-12T08:55:16.812Z,15.25
2019-05-12T08:57:49.352Z,15.15
2019-05-12T09:00:13.434Z,15.13
2019-05-12T09:02:46.053Z,15.07
2019-05-12T09:05:09.773Z,15.48
2019-05-12T09:07:39.846Z,15.56
2019-05-12T09:10:06.769Z,15.75
2019-05-12T09:12:34.267Z,16.26
2019-05-12T09:15:01.448Z,16.16
2019-05-12T09:17:28.506Z,15.78
2019-05-12T09:20:05.908Z,16.02
2019-05-12T09:22:24.664Z,15.74
2019-05-12T09:24:53.384Z,15.60
2019-05-12T09:27:21.016Z,15.60
2019-05-12T09:29:48.160Z,15.82
2019-05-12T09:32:15.257Z,16.13
2019-05-12T09:34:46.937Z,16.39
2019-05-12T09:37:11.390Z,16.42
2019-05-12T09:39:42.481Z,16.55
2019-05-12T09:42:07.947Z,16.52
2019-05-12T09:44:34.969Z,16.36
2019-05-12T09:47:04.108Z,16.36
2019-05-12T09:49:36.749Z,16.61
2019-05-12T09:52:00.633Z,16.29
2019-05-12T09:54:35.550Z,16.63
2019-05-12T09:56:59.680Z,16.90
2019-05-12T09:59:26.439Z,17.28
2019-05-12T10:01:54.144Z,17.15
2019-05-12T10:04:22.227Z,17.47
2019-05-12T10:06:49.287Z,17.48
2019-05-12T10:09:19.732Z,17.59
2019-05-12T10:11:46.236Z,17.87
2019-05-12T10:14:13.984Z,17.97
2019-05-12T10:16:49.431Z,18.36
2019-05-12T10:19:14.425Z,18.09
2019-05-12T10:21:43.836Z,18.11
2019-05-12T10:24:11.087Z,18.32
2019-05-12T10:26:41.174Z,18.77
2019-05-12T10:29:17.530Z,18.84
2019-05-12T10:31:39.395Z,19.28
2019-05-12T10:34:20.733Z,19.05
2019-05-12T10:36:49.170Z,19.17
2019-05-12T10:39:16.788Z,19.24
2019-05-12T10:41:44.225Z,18.75
2019-05-12T10:44:14.015Z,18.86
2019-05-12T10:46:42.562Z,18.85
2019-05-12T10:49:10.469Z,19.29
2019-05-12T10:51:39.018Z,19.34
2019-05-12T10:54:13.155Z,19.12
2019-05-12T10:56:40.313Z,19.39
2019-05-12T10:59:07.423Z,19.75
2019-05-12T11:01:38.555Z,20.06
2019-05-12T11:04:04.413Z,20.53
2019-05-12T11:06:33.931Z,20.20
2019-05-12T11:09:03.594Z,19.74
2019-05-12T11:11:32.891Z,19.68
2019-05-12T11:13:59.845Z,20.14
2019-05-12T11:16:31.172Z,19.44
2019-05-12T11:19:00.354Z,19.75
2019-05-12T11:21:24.998Z,20.28
2019-05-12T11:23:54.446Z,20.32
2019-05-12T11:26:23.462Z,20.01
2019-05-12T11:28:50.709Z,20.16
2019-05-12T11:31:17.898Z,20.74
2019-05-12T11:33:45.196Z,20.86
2019-05-12T11:36:13.565Z,21.32
2019-05-12T11:38:40.929Z,21.17
2019-05-12T11:41:10.121Z,21.05
2019-05-12T11:43:37.054Z,21.22
2019-05-12T11:46:04.195Z,22.17
2019-05-12T11:48:31.292Z,22.82
2019-05-12T11:50:58.789Z,23.79
2019-05-12T11:53:31.094Z,23.91
2019-05-12T11:55:55.285Z,23.33
2019-05-12T11:58:23.441Z,23.00
2019-05-12T12:00:53.367Z,23.11
2019-05-12T12:03:23.265Z,23.37
2019-05-12T12:05:50.810Z,22.77
2019-05-12T12:08:17.858Z,22.18
2019-05-12T12:10:45.011Z,21.85
2019-05-12T12:13:14.098Z,21.49
2019-05-12T12:15:41.169Z,20.81
2019-05-12T12:18:13.093Z,20.45
2019-05-12T12:20:37.650Z,20.15
2019-05-12T12:23:10.772Z,19.54
2019-05-12T12:25:34.468Z,19.34
2019-05-12T12:28:04.070Z,19.09
2019-05-12T12:30:30.623Z,18.93
2019-05-12T12:33:00.362Z,18.63
2019-05-12T12:35:26.761Z,18.84
2019-05-12T12:37:54.287Z,18.48
2019-05-12T12:40:21.425Z,18.29
2019-05-12T12:42:48.919Z,18.63
2019-05-12T12:45:40.230Z,18.68
2019-05-12T12:48:07.446Z,18.80
2019-05-12T12:50:34.511Z,18.38
2019-05-12T12:53:01.730Z,18.45
2019-05-12T12:55:29.110Z,18.58
2019-05-12T12:57:56.173Z,18.44
2019-05-12T13:00:32.144Z,18.89
2019-05-12T13:02:52.595Z,19.03
2019-05-12T13:05:20.109Z,18.96
2019-05-12T13:07:47.193Z,18.83
2019-05-12T13:10:14.524Z,19.04
2019-05-12T13:12:43.697Z,19.18
2019-05-12T13:15:10.582Z,19.01
2019-05-12T13:17:41.712Z,18.98
2019-05-12T13:20:07.549Z,19.04
2019-05-12T13:22:34.601Z,19.23
2019-05-12T13:25:04.473Z,19.31
2019-05-12T13:27:39.768Z,19.41
2019-05-12T13:30:21.348Z,19.16
2019-05-12T13:32:56.764Z,19.39
2019-05-12T13:35:55.666Z,19.55
2019-05-12T13:38:24.418Z,19.41
2019-05-12T13:40:54.053Z,19.27
2019-05-12T13:43:23.796Z,19.00
2019-05-12T13:45:50.824Z,18.62
2019-05-12T13:51:12.649Z,18.35
2019-05-12T13:53:40.213Z,18.61
2019-05-12T13:56:07.983Z,18.77
2019-05-12T13:58:42.391Z,19.18
2019-05-12T14:01:17.089Z,19.57
2019-05-12T14:03:33.613Z,19.82
2019-05-12T14:06:03.392Z,20.00
2019-05-12T14:08:30.404Z,20.34
2019-05-12T14:10:59.704Z,20.76
2019-05-12T14:13:26.963Z,20.69
2019-05-12T14:15:55.177Z,20.14
2019-05-12T14:18:22.240Z,20.29
2019-05-12T14:20:50.998Z,20.25
2019-05-12T14:23:18.613Z,19.83
2019-05-12T14:25:45.734Z,19.86
2019-05-12T14:28:16.283Z,19.09
2019-05-12T14:30:49.722Z,18.96
2019-05-12T14:33:11.799Z,18.76
2019-05-12T14:35:40.928Z,18.09
2019-05-12T14:38:09.797Z,18.07
2019-05-12T14:40:36.893Z,18.54
2019-05-12T14:43:04.415Z,19.15
2019-05-12T14:45:33.266Z,19.59
2019-05-12T14:48:07.549Z,19.52
2019-05-12T14:50:30.332Z,19.45
2019-05-12T14:52:59.699Z,19.52
2019-05-12T14:55:27.225Z,19.93
2019-05-12T14:57:54.395Z,20.07
2019-05-12T15:00:24.093Z,20.07
2019-05-12T15:02:59.109Z,19.92
2019-05-12T15:05:27.507Z,19.59
2019-05-12T15:07:59.874Z,19.35
2019-05-12T15:10:24.097Z,19.61
2019-05-12T15:12:51.639Z,19.79
2019-05-12T15:15:20.676Z,19.23
2019-05-12T15:17:48.068Z,19.41
2019-05-12T15:20:15.557Z,19.50
2019-05-12T15:22:51.180Z,20.03
2019-05-12T15:25:14.843Z,20.21
2019-05-12T15:27:48.203Z,20.02
2019-05-12T15:30:22.694Z,19.88
2019-05-12T15:32:45.271Z,19.49
2019-05-12T15:35:13.770Z,18.78
2019-05-12T15:37:43.700Z,19.00
2019-05-12T15:40:14.208Z,18.74
2019-05-12T15:42:45.199Z,18.36
2019-05-12T15:45:16.442Z,18.76
2019-05-12T15:47:44.520Z,19.89
2019-05-12T15:50:14.605Z,20.68
2019-05-12T15:52:45.533Z,21.45
2019-05-12T15:55:17.603Z,21.43
2019-05-12T15:57:44.026Z,20.91
2019-05-12T16:00:13.752Z,20.54
2019-05-12T16:02:41.233Z,20.60
2019-05-12T16:05:08.785Z,20.23
2019-05-12T16:07:39.567Z,20.12
2019-05-12T16:10:05.157Z,19.73
2019-05-12T16:12:34.379Z,19.60
2019-05-12T16:15:04.470Z,19.09
2019-05-12T16:17:31.076Z,18.96
2019-05-12T16:20:00.377Z,18.73
2019-05-12T16:22:30.864Z,18.66
2019-05-12T16:24:57.195Z,18.47
2019-05-12T16:27:33.132Z,18.38
2019-05-12T16:29:56.005Z,18.37
2019-05-12T16:32:27.142Z,18.47
2019-05-12T16:34:54.133Z,18.52
2019-05-12T16:37:25.529Z,18.22
2019-05-12T16:39:50.555Z,18.31
2019-05-12T16:42:17.627Z,18.13
2019-05-12T16:44:45.146Z,18.04
2019-05-12T16:47:13.514Z,17.86
2019-05-12T16:49:44.413Z,17.82
2019-05-12T16:52:13.694Z,17.48
2019-05-12T16:54:40.757Z,17.50
2019-05-12T16:57:12.957Z,17.35
2019-05-12T16:59:38.395Z,16.97
2019-05-12T17:02:09.637Z,16.82
2019-05-12T17:04:34.832Z,16.72
2019-05-12T17:07:02.714Z,16.59
2019-05-12T17:09:33.084Z,16.54
2019-05-12T17:11:59.976Z,16.28
2019-05-12T17:14:28.777Z,16.23
2019-05-12T17:16:59.386Z,16.16
2019-05-12T17:19:26.970Z,16.09
2019-05-12T17:21:59.486Z,15.86
2019-05-12T17:24:28.150Z,15.78
2019-05-12T17:26:55.540Z,15.71
2019-05-12T17:29:24.291Z,15.78
2019-05-12T17:31:53.585Z,15.68
2019-05-12T17:34:23.535Z,15.69
2019-05-12T17:36:56.085Z,15.62
2019-05-12T17:39:20.017Z,15.45
2019-05-12T17:41:47.300Z,15.45
2019-05-12T17:44:14.587Z,15.27
2019-05-12T17:46:44.027Z,15.25
2019-05-12T17:49:15.707Z,15.17
2019-05-12T17:51:40.385Z,15.22
2019-05-12T17:54:16.035Z,15.11
2019-05-12T17:56:38.560Z,15.16
2019-05-12T17:59:06.755Z,15.02
2019-05-12T18:01:35.458Z,15.08
2019-05-12T18:04:04.255Z,15.12
2019-05-12T18:06:33.903Z,15.03
2019-05-12T18:09:00.750Z,15.12
2019-05-12T18:11:28.179Z,15.06
2019-05-12T18:14:01.370Z,14.96
2019-05-12T18:16:24.960Z,14.87
2019-05-12T18:18:52.859Z,14.86
2019-05-12T18:21:21.500Z,14.70
2019-05-12T18:23:49.093Z,14.74
2019-05-12T18:26:16.681Z,14.76
2019-05-12T18:28:44.287Z,14.53
2019-05-12T18:31:52.608Z,14.47
2019-05-12T18:34:13.878Z,14.48
2019-05-12T18:36:41.279Z,14.32
2019-05-12T18:39:11.449Z,14.24
2019-05-12T18:41:38.111Z,14.26
2019-05-12T18:44:05.419Z,14.20
2019-05-12T18:46:36.327Z,14.17
2019-05-12T18:49:05.244Z,14.04
2019-05-12T18:51:34.146Z,13.97
2019-05-12T18:54:03.728Z,13.75
2019-05-12T18:56:30.158Z,13.72
2019-05-12T18:59:05.116Z,13.71
2019-05-12T19:01:27.342Z,13.61
2019-05-12T19:03:54.877Z,13.64
2019-05-12T19:06:23.392Z,13.47
2019-05-12T19:08:53.695Z,13.42
2019-05-12T19:11:23.638Z,13.23
2019-05-12T19:13:53.309Z,13.27
2019-05-12T19:16:19.177Z,13.19
2019-05-12T19:18:48.013Z,13.12
2019-05-12T19:21:18.392Z,13.09
2019-05-12T19:23:44.601Z,12.94
2019-05-12T19:26:13.577Z,12.92
2019-05-12T19:28:44.750Z,12.86
2019-05-12T19:31:10.338Z,12.79
2019-05-12T19:33:43.874Z,12.73
2019-05-12T19:36:07.988Z,12.74
2019-05-12T19:38:35.432Z,12.60
2019-05-12T19:41:04.653Z,12.58
2019-05-12T19:43:33.993Z,12.36
2019-05-12T19:46:03.662Z,12.33
2019-05-12T19:48:35.147Z,12.37
2019-05-12T19:51:03.168Z,12.37
2019-05-12T19:53:28.201Z,12.26
2019-05-12T19:55:55.961Z,12.26
2019-05-12T19:58:23.771Z,12.12
2019-05-12T20:00:51.251Z,12.09
2019-05-12T20:03:19.327Z,12.17
2019-05-12T20:05:46.441Z,12.09
2019-05-12T20:08:13.821Z,12.05
2019-05-12T20:10:44.638Z,11.90
2019-05-12T20:13:09.955Z,11.95
2019-05-12T20:15:41.058Z,11.90
2019-05-12T20:18:06.142Z,11.81
2019-05-12T20:20:36.737Z,11.88
2019-05-12T20:23:03.573Z,11.83
2019-05-12T20:25:30.879Z,11.66
2019-05-12T20:28:05.638Z,11.58
2019-05-12T20:30:28.213Z,11.59
2019-05-12T20:32:55.507Z,11.52
2019-05-12T20:35:22.596Z,11.38
2019-05-12T20:37:53.062Z,11.52
2019-05-12T20:40:18.806Z,11.56
2019-05-12T20:43:05.571Z,11.51
2019-05-12T20:45:15.804Z,11.53
2019-05-12T20:47:45.202Z,11.48
2019-05-12T20:50:14.709Z,11.50
2019-05-12T20:52:46.281Z,11.39
2019-05-12T20:55:11.244Z,11.39
2019-05-12T20:57:40.123Z,11.36
2019-05-12T21:00:08.561Z,11.35
2019-05-12T21:02:35.815Z,11.29
2019-05-12T21:05:09.518Z,11.15
2019-05-12T21:07:33.881Z,10.99
2019-05-12T21:10:04.282Z,10.83
2019-05-12T21:12:33.397Z,10.72
2019-05-12T21:15:12.631Z,10.64
2019-05-12T21:17:40.599Z,10.57
2019-05-12T21:19:59.433Z,10.59
2019-05-12T21:22:26.735Z,10.56
2019-05-12T21:24:54.068Z,10.44
2019-05-12T21:27:21.486Z,10.36
2019-05-12T21:29:49.343Z,10.32
2019-05-12T21:32:17.049Z,10.37
2019-05-12T21:34:44.186Z,10.38
2019-05-12T21:37:13.769Z,10.52
2019-05-12T21:39:46.058Z,10.55
2019-05-12T21:42:09.836Z,10.60
2019-05-12T21:44:41.384Z,10.56
2019-05-12T21:47:10.391Z,10.56
2019-05-12T21:49:34.975Z,10.63
2019-05-12T21:52:04.104Z,10.65
2019-05-12T21:54:37.718Z,10.66
2019-05-12T21:57:00.894Z,10.60
2019-05-12T21:59:34.581Z,10.61
2019-05-12T22:01:57.758Z,10.54
2019-05-12T22:04:24.863Z,10.39
2019-05-12T22:06:57.077Z,10.50
2019-05-12T22:09:23.849Z,10.44
2019-05-12T22:11:53.285Z,10.38
2019-05-12T22:14:19.555Z,10.39
2019-05-12T22:16:49.563Z,10.34
2019-05-12T22:19:16.694Z,10.31
2019-05-12T22:21:49.219Z,10.15
2019-05-12T22:24:14.584Z,10.21
2019-05-12T22:26:45.858Z,10.07
2019-05-12T22:29:13.393Z,10.02
2019-05-12T22:31:44.697Z,9.95
2019-05-12T22:34:09.105Z,9.78
2019-05-12T22:36:36.318Z,9.60
2019-05-12T22:39:05.776Z,9.51
2019-05-12T22:41:36.893Z,9.36
2019-05-12T22:44:01.970Z,9.20
2019-05-12T22:46:31.377Z,9.03
2019-05-12T22:48:58.139Z,8.90
2019-05-12T22:51:26.878Z,8.79
2019-05-12T22:53:54.279Z,8.71
2019-05-12T22:56:23.605Z,8.61
2019-05-12T22:58:52.063Z,8.54
2019-05-12T23:01:19.613Z,8.50
2019-05-12T23:03:51.753Z,8.34
2019-05-12T23:06:23.530Z,8.22
2019-05-12T23:08:49.223Z,8.12
2019-05-12T23:11:14.572Z,7.99
2019-05-12T23:13:42.871Z,7.85
2019-05-12T23:16:10.095Z,7.77
2019-05-12T23:18:37.199Z,7.68
2019-05-12T23:21:15.973Z,7.57
2019-05-12T23:23:34.071Z,7.48
2019-05-12T23:26:02.073Z,7.39
2019-05-12T23:28:29.669Z,7.36
2019-05-12T23:30:56.819Z,7.34
2019-05-12T23:33:32.053Z,7.27
2019-05-12T23:35:53.566Z,7.28
2019-05-12T23:38:21.134Z,7.26
2019-05-12T23:40:48.485Z,7.32
2019-05-12T23:43:15.526Z,7.30
2019-05-12T23:45:44.438Z,7.26
2019-05-12T23:48:13.604Z,7.27
2019-05-12T23:50:41.049Z,7.23
2019-05-12T23:53:08.141Z,7.21
2019-05-12T23:55:35.340Z,7.23
2019-05-12T23:58:04.391Z,7.23
